createdAt,value
2019-01-30T00:00:46.350Z,84.40
2019-01-30T00:03:15.174Z,84.20
2019-01-30T00:05:43.906Z,84.00
2019-01-30T00:08:12.466Z,84.20
2019-01-30T00:10:41.374Z,84.10
2019-01-30T00:13:09.994Z,84.10
2019-01-30T00:15:39.054Z,83.80
2019-01-30T00:18:07.606Z,83.10
2019-01-30T00:20:36.181Z,83.00
2019-01-30T00:23:04.905Z,82.80
2019-01-30T00:25:33.413Z,82.80
2019-01-30T00:28:02.013Z,83.40
2019-01-30T00:30:30.542Z,82.80
2019-01-30T00:32:59.031Z,82.60
2019-01-30T00:35:27.679Z,83.00
2019-01-30T00:37:58.465Z,82.80
2019-01-30T00:40:26.598Z,83.30
2019-01-30T00:42:55.170Z,82.90
2019-01-30T00:45:24.002Z,82.70
2019-01-30T00:47:52.654Z,83.50
2019-01-30T00:50:23.519Z,84.30
2019-01-30T00:52:52.408Z,84.00
2019-01-30T00:55:21.198Z,83.60
2019-01-30T00:57:49.846Z,84.60
2019-01-30T01:00:24.279Z,84.60
2019-01-30T01:02:52.854Z,84.40
2019-01-30T01:05:21.479Z,84.50
2019-01-30T01:07:50.270Z,83.90
2019-01-30T01:10:21.082Z,85.60
2019-01-30T01:12:49.826Z,85.50
2019-01-30T01:15:18.578Z,86.20
2019-01-30T01:17:47.426Z,85.20
2019-01-30T01:20:17.542Z,85.50
2019-01-30T01:22:46.216Z,85.10
2019-01-30T01:25:18.102Z,85.20
2019-01-30T01:27:46.856Z,85.70
2019-01-30T01:30:30.613Z,86.60
2019-01-30T01:32:59.198Z,86.40
2019-01-30T01:35:27.747Z,86.40
2019-01-30T01:37:56.324Z,86.90
2019-01-30T01:40:24.878Z,87.70
2019-01-30T01:42:53.462Z,87.60
2019-01-30T01:45:24.260Z,87.50
2019-01-30T01:47:53.015Z,87.50
2019-01-30T01:50:22.704Z,87.10
2019-01-30T01:52:51.530Z,86.70
2019-01-30T01:55:20.631Z,86.10
2019-01-30T01:57:49.227Z,86.50
2019-01-30T02:00:20.282Z,86.30
2019-01-30T02:02:48.934Z,86.20
2019-01-30T02:05:22.756Z,86.40
2019-01-30T02:07:52.174Z,86.70
2019-01-30T02:10:22.770Z,87.30
2019-01-30T02:12:51.607Z,86.10
2019-01-30T02:15:21.996Z,86.90
2019-01-30T02:17:50.838Z,86.10
2019-01-30T02:20:22.194Z,86.00
2019-01-30T02:22:50.856Z,86.30
2019-01-30T02:25:19.478Z,85.90
2019-01-30T02:27:48.063Z,84.90
2019-01-30T02:30:19.628Z,85.50
2019-01-30T02:32:48.472Z,85.50
2019-01-30T02:35:17.199Z,85.90
2019-01-30T02:37:45.791Z,85.30
2019-01-30T02:40:18.846Z,85.70
2019-01-30T02:42:47.570Z,85.10
2019-01-30T02:45:21.352Z,85.50
2019-01-30T02:47:49.915Z,85.40
2019-01-30T02:50:19.894Z,84.80
2019-01-30T02:52:48.911Z,84.30
2019-01-30T02:55:19.206Z,84.80
2019-01-30T02:57:47.994Z,84.90
2019-01-30T03:00:27.982Z,85.20
2019-01-30T03:02:56.659Z,84.60
2019-01-30T03:05:25.378Z,84.40
2019-01-30T03:07:54.027Z,84.60
2019-01-30T03:10:23.995Z,84.20
2019-01-30T03:12:52.574Z,83.70
2019-01-30T03:15:21.570Z,82.50
2019-01-30T03:17:50.212Z,83.10
2019-01-30T03:20:24.059Z,83.00
2019-01-30T03:22:52.874Z,82.40
2019-01-30T03:25:23.035Z,82.50
2019-01-30T03:27:51.594Z,83.20
2019-01-30T03:30:28.626Z,82.90
2019-01-30T03:32:57.531Z,82.10
2019-01-30T03:35:26.166Z,82.60
2019-01-30T03:37:54.794Z,81.50
2019-01-30T03:40:23.524Z,82.70
2019-01-30T03:42:52.239Z,82.20
2019-01-30T03:45:23.051Z,81.40
2019-01-30T03:47:51.693Z,82.20
2019-01-30T03:50:20.430Z,81.70
2019-01-30T03:52:49.042Z,82.40
2019-01-30T03:55:19.458Z,82.70
2019-01-30T03:57:48.196Z,82.10
2019-01-30T04:00:25.286Z,81.90
2019-01-30T04:02:54.373Z,82.00
2019-01-30T04:05:23.299Z,82.10
2019-01-30T04:07:51.888Z,81.30
2019-01-30T04:10:22.920Z,81.90
2019-01-30T04:12:51.802Z,81.90
2019-01-30T04:15:20.890Z,81.90
2019-01-30T04:17:49.673Z,81.80
2019-01-30T04:20:20.122Z,81.80
2019-01-30T04:22:48.764Z,80.90
2019-01-30T04:25:17.545Z,81.60
2019-01-30T04:27:46.095Z,82.20
2019-01-30T04:30:23.364Z,82.30
2019-01-30T04:32:52.082Z,82.70
2019-01-30T04:35:20.685Z,82.00
2019-01-30T04:37:49.232Z,82.40
2019-01-30T04:40:19.748Z,83.00
2019-01-30T04:42:48.573Z,82.20
2019-01-30T04:45:20.167Z,82.10
2019-01-30T04:47:48.790Z,82.80
2019-01-30T04:50:17.623Z,82.40
2019-01-30T04:52:46.316Z,82.40
2019-01-30T04:55:15.530Z,82.90
2019-01-30T04:57:44.084Z,82.60
2019-01-30T05:00:15.677Z,83.10
2019-01-30T05:02:44.316Z,82.50
2019-01-30T05:05:13.467Z,82.10
2019-01-30T05:07:42.078Z,82.70
2019-01-30T05:10:12.802Z,82.80
2019-01-30T05:12:41.347Z,82.40
2019-01-30T05:15:20.387Z,81.90
2019-01-30T05:17:49.031Z,82.90
2019-01-30T05:20:21.230Z,82.10
2019-01-30T05:22:49.910Z,82.90
2019-01-30T05:25:18.705Z,82.70
2019-01-30T05:27:47.354Z,81.30
2019-01-30T05:30:19.028Z,82.10
2019-01-30T05:32:47.574Z,81.80
2019-01-30T05:35:16.118Z,80.90
2019-01-30T05:37:44.699Z,80.40
2019-01-30T05:40:15.896Z,80.30
2019-01-30T05:42:44.494Z,80.80
2019-01-30T05:45:15.589Z,80.10
2019-01-30T05:47:44.266Z,81.20
2019-01-30T05:50:14.354Z,80.80
2019-01-30T05:52:43.370Z,81.00
2019-01-30T05:55:14.177Z,80.20
2019-01-30T05:57:42.824Z,80.20
2019-01-30T06:00:21.016Z,79.90
2019-01-30T06:02:49.658Z,80.20
2019-01-30T06:05:18.278Z,79.50
2019-01-30T06:07:46.922Z,78.80
2019-01-30T06:10:15.476Z,78.90
2019-01-30T06:12:44.050Z,79.00
2019-01-30T06:15:17.865Z,79.10
2019-01-30T06:17:46.558Z,78.50
2019-01-30T06:20:23.382Z,78.50
2019-01-30T06:22:52.096Z,79.20
2019-01-30T06:25:20.861Z,77.80
2019-01-30T06:27:49.442Z,78.50
2019-01-30T06:30:25.584Z,78.50
2019-01-30T06:32:54.142Z,78.60
2019-01-30T06:35:22.682Z,78.50
2019-01-30T06:37:51.266Z,78.00
2019-01-30T06:40:33.424Z,78.10
2019-01-30T06:43:02.813Z,78.80
2019-01-30T06:45:31.518Z,77.60
2019-01-30T06:48:00.163Z,78.20
2019-01-30T06:50:28.914Z,78.50
2019-01-30T06:52:57.494Z,77.60
2019-01-30T06:55:26.048Z,77.10
2019-01-30T06:57:54.598Z,77.80
2019-01-30T07:00:25.129Z,77.60
2019-01-30T07:02:54.346Z,77.50
2019-01-30T07:05:22.931Z,77.50
2019-01-30T07:07:51.551Z,76.50
2019-01-30T07:10:24.915Z,76.80
2019-01-30T07:12:53.800Z,76.30
2019-01-30T07:15:23.042Z,76.50
2019-01-30T07:17:51.692Z,76.10
2019-01-30T07:20:20.281Z,76.50
2019-01-30T07:22:48.903Z,77.20
2019-01-30T07:25:19.730Z,76.50
2019-01-30T07:27:48.280Z,75.90
2019-01-30T07:30:19.611Z,76.70
2019-01-30T07:32:48.175Z,76.80
2019-01-30T07:35:17.030Z,77.30
2019-01-30T07:37:45.586Z,76.70
2019-01-30T07:40:15.943Z,77.60
2019-01-30T07:42:44.556Z,76.80
2019-01-30T07:45:19.146Z,76.70
2019-01-30T07:47:47.806Z,77.20
2019-01-30T07:50:16.452Z,77.00
2019-01-30T07:52:45.000Z,76.40
2019-01-30T07:55:15.522Z,77.40
2019-01-30T07:57:44.237Z,76.30
2019-01-30T08:00:21.526Z,76.70
2019-01-30T08:02:53.257Z,76.90
2019-01-30T08:05:22.578Z,76.70
2019-01-30T08:07:51.325Z,74.90
2019-01-30T08:10:19.966Z,76.50
2019-01-30T08:12:48.688Z,75.60
2019-01-30T08:15:24.400Z,76.00
2019-01-30T08:17:53.193Z,75.00
2019-01-30T08:20:23.011Z,76.10
2019-01-30T08:22:51.577Z,75.50
2019-01-30T08:25:21.922Z,75.50
2019-01-30T08:27:50.914Z,74.80
2019-01-30T08:30:27.949Z,74.80
2019-01-30T08:33:04.013Z,75.30
2019-01-30T08:35:29.304Z,74.30
2019-01-30T08:37:58.056Z,76.10
2019-01-30T08:40:26.871Z,75.10
2019-01-30T08:42:55.428Z,76.20
2019-01-30T08:45:26.558Z,75.70
2019-01-30T08:47:55.184Z,75.40
2019-01-30T08:50:24.047Z,74.70
2019-01-30T08:52:52.762Z,75.00
2019-01-30T08:55:21.410Z,74.70
2019-01-30T08:57:50.102Z,75.50
2019-01-30T09:00:20.747Z,73.50
2019-01-30T09:02:49.633Z,74.70
2019-01-30T09:05:18.483Z,74.30
2019-01-30T09:07:47.027Z,74.20
2019-01-30T09:10:18.390Z,73.10
2019-01-30T09:12:46.971Z,72.00
2019-01-30T09:15:18.232Z,71.00
2019-01-30T09:17:46.812Z,70.50
2019-01-30T09:20:17.606Z,69.90
2019-01-30T09:22:46.261Z,68.10
2019-01-30T09:25:17.515Z,69.90
2019-01-30T09:27:46.432Z,67.30
2019-01-30T09:30:20.627Z,66.10
2019-01-30T09:32:49.287Z,65.60
2019-01-30T09:35:17.959Z,67.40
2019-01-30T09:37:46.554Z,66.50
2019-01-30T09:40:17.647Z,64.30
2019-01-30T09:42:46.225Z,63.80
2019-01-30T09:45:19.691Z,63.90
2019-01-30T09:47:48.296Z,63.10
2019-01-30T09:50:19.170Z,61.90
2019-01-30T09:52:48.591Z,61.40
2019-01-30T09:55:18.606Z,61.70
2019-01-30T09:57:47.456Z,62.80
2019-01-30T10:00:19.099Z,60.10
2019-01-30T10:02:47.679Z,60.10
2019-01-30T10:05:16.965Z,60.30
2019-01-30T10:07:45.554Z,58.30
2019-01-30T10:10:22.588Z,54.30
2019-01-30T10:12:51.161Z,52.30
2019-01-30T10:15:25.750Z,51.50
2019-01-30T10:17:54.344Z,50.00
2019-01-30T10:20:25.103Z,48.90
2019-01-30T10:22:53.922Z,45.20
2019-01-30T10:25:22.468Z,48.60
2019-01-30T10:27:51.303Z,45.20
2019-01-30T10:30:28.213Z,46.00
2019-01-30T10:32:56.798Z,43.80
2019-01-30T10:35:25.423Z,45.20
2019-01-30T10:37:54.017Z,41.90
2019-01-30T10:40:22.806Z,41.40
2019-01-30T10:42:52.070Z,40.50
2019-01-30T10:45:20.843Z,42.90
2019-01-30T10:47:49.481Z,45.50
2019-01-30T10:50:21.170Z,45.70
2019-01-30T10:52:49.827Z,44.60
2019-01-30T10:55:20.823Z,43.80
2019-01-30T10:57:51.147Z,40.90
2019-01-30T11:00:25.407Z,42.70
2019-01-30T11:02:54.130Z,42.70
2019-01-30T11:05:23.128Z,42.90
2019-01-30T11:07:51.703Z,41.80
2019-01-30T11:10:21.302Z,42.50
2019-01-30T11:12:49.959Z,44.30
2019-01-30T11:15:27.134Z,40.40
2019-01-30T11:17:56.018Z,39.00
2019-01-30T11:20:24.589Z,40.60
2019-01-30T11:22:53.798Z,43.40
2019-01-30T11:25:28.614Z,42.70
2019-01-30T11:27:57.170Z,44.00
2019-01-30T11:30:26.095Z,41.70
2019-01-30T11:32:55.506Z,42.80
2019-01-30T11:35:24.346Z,41.30
2019-01-30T11:37:52.910Z,41.80
2019-01-30T11:40:23.100Z,41.90
2019-01-30T11:42:51.827Z,39.00
2019-01-30T11:45:31.871Z,39.10
2019-01-30T11:48:00.501Z,38.50
2019-01-30T11:50:29.316Z,37.00
2019-01-30T11:52:57.891Z,39.70
2019-01-30T11:55:26.615Z,37.90
2019-01-30T11:57:55.172Z,38.00
2019-01-30T12:00:43.370Z,39.50
2019-01-30T12:03:11.918Z,39.80
2019-01-30T12:05:40.503Z,38.90
2019-01-30T12:08:09.192Z,39.00
2019-01-30T12:10:37.942Z,42.50
2019-01-30T12:13:06.643Z,40.20
2019-01-30T12:15:35.297Z,42.60
2019-01-30T12:18:04.031Z,42.10
2019-01-30T12:20:32.605Z,42.60
2019-01-30T12:23:01.399Z,39.60
2019-01-30T12:25:29.983Z,39.90
2019-01-30T12:27:58.470Z,39.90
2019-01-30T12:30:28.286Z,38.30
2019-01-30T12:32:57.295Z,41.70
2019-01-30T12:35:26.900Z,45.10
2019-01-30T12:37:55.474Z,43.30
2019-01-30T12:40:25.498Z,43.50
2019-01-30T12:42:54.601Z,42.70
2019-01-30T12:45:37.416Z,41.70
2019-01-30T12:48:07.015Z,38.10
2019-01-30T12:50:35.763Z,40.00
2019-01-30T12:53:04.656Z,36.50
2019-01-30T12:55:33.237Z,35.80
2019-01-30T12:58:01.800Z,36.40
2019-01-30T13:00:35.978Z,36.90
2019-01-30T13:03:04.873Z,38.40
2019-01-30T13:05:33.684Z,38.60
2019-01-30T13:08:02.175Z,35.80
2019-01-30T13:10:30.833Z,36.40
2019-01-30T13:12:59.461Z,34.70
2019-01-30T13:15:29.285Z,34.90
2019-01-30T13:17:58.411Z,35.50
2019-01-30T13:20:27.101Z,35.00
2019-01-30T13:22:55.792Z,33.40
2019-01-30T13:25:27.116Z,35.00
2019-01-30T13:27:55.631Z,36.00
2019-01-30T13:30:29.786Z,35.10
2019-01-30T13:32:58.540Z,35.60
2019-01-30T13:35:27.239Z,34.30
2019-01-30T13:37:55.839Z,33.00
2019-01-30T13:40:36.106Z,34.60
2019-01-30T13:43:06.175Z,35.40
2019-01-30T13:45:34.796Z,37.30
2019-01-30T13:48:04.709Z,37.30
2019-01-30T13:50:33.350Z,38.90
2019-01-30T13:53:01.981Z,38.50
2019-01-30T13:55:30.651Z,35.80
2019-01-30T13:57:59.247Z,37.50
2019-01-30T14:00:33.550Z,37.80
2019-01-30T14:03:02.574Z,41.40
2019-01-30T14:05:31.571Z,43.30
2019-01-30T14:08:00.464Z,45.00
2019-01-30T14:10:29.177Z,45.60
2019-01-30T14:12:57.761Z,47.40
2019-01-30T14:15:28.759Z,50.80
2019-01-30T14:17:57.357Z,49.50
2019-01-30T14:20:26.065Z,49.30
2019-01-30T14:22:54.624Z,50.40
2019-01-30T14:25:23.414Z,50.50
2019-01-30T14:27:52.049Z,51.50
2019-01-30T14:30:34.674Z,53.30
2019-01-30T14:33:03.319Z,53.90
2019-01-30T14:35:33.715Z,53.60
2019-01-30T14:38:02.295Z,52.90
2019-01-30T14:40:30.855Z,53.60
2019-01-30T14:42:59.449Z,52.00
2019-01-30T14:45:28.142Z,51.30
2019-01-30T14:47:56.791Z,52.10
2019-01-30T14:50:27.239Z,52.40
2019-01-30T14:52:55.921Z,53.30
2019-01-30T14:55:24.830Z,53.70
2019-01-30T14:57:54.487Z,54.30
2019-01-30T15:00:31.642Z,53.10
2019-01-30T15:03:00.220Z,52.30
2019-01-30T15:05:29.614Z,53.60
2019-01-30T15:07:58.649Z,55.20
2019-01-30T15:10:29.274Z,57.20
2019-01-30T15:12:57.947Z,56.80
2019-01-30T15:15:28.699Z,56.50
2019-01-30T15:17:57.404Z,57.60
2019-01-30T15:20:28.254Z,58.10
2019-01-30T15:22:57.215Z,58.70
2019-01-30T15:25:26.548Z,58.20
2019-01-30T15:27:55.361Z,59.10
2019-01-30T15:30:32.402Z,59.00
2019-01-30T15:33:01.106Z,59.30
2019-01-30T15:35:33.703Z,59.40
2019-01-30T15:38:00.635Z,59.90
2019-01-30T15:40:31.027Z,59.50
2019-01-30T15:42:59.535Z,60.10
2019-01-30T15:45:28.439Z,61.60
2019-01-30T15:47:57.080Z,61.30
2019-01-30T15:50:28.203Z,60.50
2019-01-30T15:52:57.639Z,61.00
2019-01-30T15:55:26.269Z,60.90
2019-01-30T15:57:59.752Z,61.80
2019-01-30T16:00:37.607Z,62.80
2019-01-30T16:03:06.993Z,63.80
2019-01-30T16:05:44.514Z,64.00
2019-01-30T16:08:05.977Z,64.40
2019-01-30T16:10:34.903Z,64.60
2019-01-30T16:13:03.725Z,65.70
2019-01-30T16:15:43.704Z,64.20
2019-01-30T16:18:12.323Z,64.30
2019-01-30T16:20:40.906Z,65.30
2019-01-30T16:23:09.457Z,65.20
2019-01-30T16:25:38.186Z,66.30
2019-01-30T16:28:07.116Z,65.40
2019-01-30T16:30:35.769Z,65.20
2019-01-30T16:33:04.893Z,65.60
2019-01-30T16:35:33.753Z,67.20
2019-01-30T16:38:02.451Z,66.60
2019-01-30T16:40:31.109Z,67.10
2019-01-30T16:42:59.704Z,66.80
2019-01-30T16:45:30.183Z,66.80
2019-01-30T16:47:58.738Z,66.80
2019-01-30T16:50:27.395Z,66.60
2019-01-30T16:52:56.181Z,67.10
2019-01-30T16:55:24.839Z,67.10
2019-01-30T16:57:53.925Z,67.30
2019-01-30T17:00:30.977Z,67.80
2019-01-30T17:02:59.987Z,67.90
2019-01-30T17:05:29.223Z,67.40
2019-01-30T17:07:57.865Z,68.10
2019-01-30T17:10:26.402Z,68.40
2019-01-30T17:12:55.153Z,67.50
2019-01-30T17:15:29.693Z,67.80
2019-01-30T17:17:58.452Z,68.10
2019-01-30T17:20:32.303Z,68.00
2019-01-30T17:23:00.898Z,68.50
2019-01-30T17:25:29.791Z,68.00
2019-01-30T17:27:58.452Z,69.20
2019-01-30T17:30:35.981Z,68.40
2019-01-30T17:33:05.211Z,69.40
2019-01-30T17:35:33.941Z,68.20
2019-01-30T17:38:02.541Z,68.10
2019-01-30T17:40:31.367Z,69.00
2019-01-30T17:43:00.056Z,68.20
2019-01-30T17:45:28.705Z,68.80
2019-01-30T17:47:57.298Z,68.80
2019-01-30T17:50:27.791Z,69.00
2019-01-30T17:52:56.549Z,69.10
2019-01-30T17:55:26.158Z,69.30
2019-01-30T17:57:55.308Z,69.20
2019-01-30T18:00:37.351Z,69.80
2019-01-30T18:03:05.946Z,70.00
2019-01-30T18:05:34.591Z,69.90
2019-01-30T18:08:03.175Z,70.40
2019-01-30T18:10:31.753Z,69.80
2019-01-30T18:13:00.401Z,69.30
2019-01-30T18:15:29.125Z,68.60
2019-01-30T18:17:57.646Z,67.70
2019-01-30T18:20:26.201Z,68.40
2019-01-30T18:22:54.863Z,68.90
2019-01-30T18:25:23.417Z,68.60
2019-01-30T18:27:52.082Z,69.20
2019-01-30T18:30:21.881Z,68.80
2019-01-30T18:32:50.719Z,68.50
2019-01-30T18:35:19.351Z,69.30
2019-01-30T18:37:48.187Z,69.60
2019-01-30T18:40:19.455Z,69.00
2019-01-30T18:42:48.581Z,69.60
2019-01-30T18:45:19.783Z,69.90
2019-01-30T18:47:48.373Z,70.90
2019-01-30T18:50:22.088Z,69.90
2019-01-30T18:52:50.751Z,69.50
2019-01-30T18:55:19.663Z,71.70
2019-01-30T18:57:48.553Z,70.10
2019-01-30T19:00:37.910Z,69.50
2019-01-30T19:03:08.946Z,69.70
2019-01-30T19:05:37.647Z,70.20
2019-01-30T19:08:06.476Z,70.60
2019-01-30T19:10:35.026Z,69.60
2019-01-30T19:13:04.661Z,69.10
2019-01-30T19:15:33.333Z,69.00
2019-01-30T19:18:01.887Z,69.70
2019-01-30T19:20:38.890Z,69.40
2019-01-30T19:23:07.574Z,69.30
2019-01-30T19:25:36.355Z,70.30
2019-01-30T19:28:06.850Z,70.50
2019-01-30T19:30:35.506Z,70.00
2019-01-30T19:33:06.503Z,69.70
2019-01-30T19:35:35.091Z,69.30
2019-01-30T19:38:03.755Z,69.30
2019-01-30T19:40:32.344Z,69.20
2019-01-30T19:43:00.898Z,69.50
2019-01-30T19:45:29.763Z,69.60
2019-01-30T19:47:58.393Z,69.60
2019-01-30T19:50:28.928Z,69.60
2019-01-30T19:52:58.697Z,69.50
2019-01-30T19:55:27.417Z,69.80
2019-01-30T19:57:56.647Z,70.30
2019-01-30T20:00:30.741Z,69.80
2019-01-30T20:03:00.541Z,70.10
2019-01-30T20:05:29.207Z,70.10
2019-01-30T20:07:57.757Z,70.00
2019-01-30T20:10:29.790Z,70.70
2019-01-30T20:12:58.425Z,70.90
2019-01-30T20:15:27.354Z,70.00
2019-01-30T20:17:56.157Z,70.00
2019-01-30T20:20:24.758Z,69.40
2019-01-30T20:22:53.450Z,69.20
2019-01-30T20:25:31.348Z,69.80
2019-01-30T20:27:59.907Z,69.90
2019-01-30T20:30:28.489Z,70.30
2019-01-30T20:32:57.115Z,70.50
2019-01-30T20:35:25.859Z,70.20
2019-01-30T20:37:54.488Z,70.50
2019-01-30T20:40:27.713Z,70.40
2019-01-30T20:42:56.974Z,70.00
2019-01-30T20:45:33.610Z,70.10
2019-01-30T20:47:56.074Z,70.10
2019-01-30T20:50:27.720Z,70.10
2019-01-30T20:52:56.941Z,71.00
2019-01-30T20:55:25.678Z,70.00
2019-01-30T20:57:54.334Z,71.00
2019-01-30T21:00:35.150Z,71.10
2019-01-30T21:03:04.514Z,71.30
2019-01-30T21:05:33.243Z,70.80
2019-01-30T21:08:01.973Z,70.00
2019-01-30T21:10:33.081Z,70.20
2019-01-30T21:13:01.738Z,70.30
2019-01-30T21:15:30.298Z,70.20
2019-01-30T21:17:58.963Z,70.20
2019-01-30T21:20:27.509Z,71.00
2019-01-30T21:22:56.174Z,70.90
2019-01-30T21:25:25.000Z,71.50
2019-01-30T21:27:53.660Z,71.10
2019-01-30T21:30:24.553Z,71.30
2019-01-30T21:32:53.319Z,71.20
2019-01-30T21:35:21.883Z,70.80
2019-01-30T21:37:50.473Z,70.80
2019-01-30T21:40:19.970Z,70.80
2019-01-30T21:42:49.125Z,72.10
2019-01-30T21:45:22.212Z,73.00
2019-01-30T21:47:50.871Z,72.00
2019-01-30T21:50:20.161Z,71.80
2019-01-30T21:52:48.892Z,72.70
2019-01-30T21:55:22.148Z,73.00
2019-01-30T21:57:50.811Z,72.20
2019-01-30T22:00:27.942Z,72.40
2019-01-30T22:02:56.760Z,72.30
2019-01-30T22:05:25.868Z,71.70
2019-01-30T22:08:01.110Z,71.50
2019-01-30T22:10:27.803Z,72.20
2019-01-30T22:12:56.932Z,72.00
2019-01-30T22:15:25.550Z,71.20
2019-01-30T22:17:54.031Z,72.00
2019-01-30T22:20:24.355Z,71.10
2019-01-30T22:22:53.290Z,71.90
2019-01-30T22:25:23.314Z,71.90
2019-01-30T22:27:51.886Z,71.30
2019-01-30T22:30:28.925Z,72.90
2019-01-30T22:32:57.548Z,72.20
2019-01-30T22:35:26.275Z,71.40
2019-01-30T22:37:54.840Z,71.90
2019-01-30T22:40:23.565Z,71.00
2019-01-30T22:42:52.194Z,71.50
2019-01-30T22:45:22.491Z,71.40
2019-01-30T22:47:51.181Z,72.30
2019-01-30T22:50:20.709Z,71.50
2019-01-30T22:52:49.502Z,71.20
2019-01-30T22:55:22.504Z,71.00
2019-01-30T22:57:51.595Z,71.20
2019-01-30T23:00:31.182Z,71.70
2019-01-30T23:02:59.974Z,71.80
2019-01-30T23:05:34.513Z,71.40
2019-01-30T23:08:03.286Z,71.60
2019-01-30T23:10:37.738Z,71.10
2019-01-30T23:13:12.352Z,70.60
2019-01-30T23:15:46.699Z,70.90
2019-01-30T23:18:36.768Z,71.40
2019-01-30T23:21:14.229Z,70.30
2019-01-30T23:23:54.252Z,71.50
2019-01-30T23:26:31.758Z,70.90
2019-01-30T23:29:21.794Z,70.90
2019-01-30T23:31:56.234Z,71.10
2019-01-30T23:34:30.494Z,70.90
2019-01-30T23:37:26.211Z,71.80
2019-01-30T23:40:20.453Z,70.80
2019-01-30T23:43:08.765Z,71.30
2019-01-30T23:45:52.397Z,70.30
2019-01-30T23:48:26.621Z,71.70
2019-01-30T23:51:13.452Z,71.10
2019-01-30T23:53:50.420Z,70.50
2019-01-30T23:56:38.909Z,71.10
2019-01-30T23:59:25.364Z,71.10
